Time;durP1;ratioP1;P1;durP2;ratioP2;P2;SDS_P1;SDS_P2;PMS_P1;PMS_P2;Temp;Humidity;BMP_temperature;BMP_pressure;BME280_temperature;BME280_humidity;BME280_pressure;Samples;Min_cycle;Max_cycle;Signal;HPM_P1;HPM_P2
2022/04/26 03:36:59;;;;;;;4.40;4.10;;;;;;;2.62;100.00;101005.75;5046974;28;20056;-78
2022/04/26 03:39:34;;;;;;;4.72;4.35;;;;;;;2.51;100.00;101001.91;5045298;28;20060;-78
2022/04/26 03:42:08;;;;;;;4.60;4.30;;;;;;;2.59;100.00;101001.66;5050691;28;20639;-78
2022/04/26 03:44:42;;;;;;;5.03;4.63;;;;;;;2.54;100.00;100996.94;5048672;28;20052;-78
2022/04/26 03:47:10;;;;;;;5.40;5.00;;;;;;;2.59;100.00;101007.00;5042946;28;20402;-79
2022/04/26 03:49:43;;;;;;;6.32;5.85;;;;;;;2.66;100.00;101010.47;5053193;28;20405;-78
2022/04/26 03:52:17;;;;;;;6.40;5.90;;;;;;;2.65;100.00;101003.47;5044409;28;20058;-79
2022/04/26 03:54:51;;;;;;;6.72;6.22;;;;;;;2.72;100.00;101006.06;5042563;28;20053;-79
2022/04/26 03:57:24;;;;;;;8.02;7.43;;;;;;;2.70;100.00;101006.31;5046482;28;20655;-78
2022/04/26 03:59:57;;;;;;;8.18;7.57;;;;;;;2.67;100.00;101003.25;5048845;28;20044;-78
2022/04/26 04:02:32;;;;;;;7.60;7.00;;;;;;;2.69;100.00;101001.16;5053625;28;20053;-78
2022/04/26 04:05:00;;;;;;;9.50;8.80;;;;;;;2.72;100.00;101006.06;5045086;28;20119;-79
2022/04/26 04:07:34;;;;;;;10.07;9.38;;;;;;;2.80;100.00;101016.56;5041165;28;20056;-79
2022/04/26 04:10:04;;;;;;;11.70;10.90;;;;;;;2.83;100.00;101010.75;5044510;28;20056;-79
2022/04/26 04:12:37;;;;;;;13.20;12.35;;;;;;;2.86;100.00;101013.00;5047952;28;20512;-79
2022/04/26 04:15:11;;;;;;;14.05;13.15;;;;;;;2.82;100.00;101022.56;5046052;28;20052;-79
2022/04/26 04:17:44;;;;;;;15.63;14.65;;;;;;;2.94;100.00;101025.34;5044217;28;20052;-79
2022/04/26 04:20:17;;;;;;;15.85;14.85;;;;;;;2.95;100.00;101016.22;5046208;28;20057;-79
2022/04/26 04:22:53;;;;;;;14.82;13.93;;;;;;;2.94;100.00;101011.06;5044392;28;20056;-79
2022/04/26 04:25:28;;;;;;;15.05;14.15;;;;;;;3.01;100.00;101018.03;5046015;28;20401;-79
2022/04/26 04:28:01;;;;;;;17.00;15.98;;;;;;;2.85;100.00;100991.72;5044043;28;20049;-78
2022/04/26 04:30:34;;;;;;;17.40;16.30;;;;;;;3.01;100.00;101017.19;5046191;28;20091;-79
2022/04/26 04:33:08;;;;;;;17.58;16.48;;;;;;;2.98;100.00;101015.78;5030544;28;20056;-79
2022/04/26 04:35:37;;;;;;;18.40;17.30;;;;;;;3.02;100.00;101016.16;5031564;28;20069;-79
2022/04/26 04:38:10;;;;;;;18.10;17.00;;;;;;;2.98;100.00;101025.72;5055312;28;20060;-79
2022/04/26 04:40:44;;;;;;;20.05;18.85;;;;;;;2.99;100.00;101028.19;5049030;28;20442;-79
2022/04/26 04:43:18;;;;;;;19.42;18.23;;;;;;;3.03;100.00;101023.19;5047361;28;20553;-79
2022/04/26 04:45:51;;;;;;;19.88;18.67;;;;;;;3.18;100.00;101028.25;5041908;28;20041;-78
2022/04/26 04:48:20;;;;;;;19.55;18.35;;;;;;;3.18;100.00;101030.94;5062053;28;20049;-79
2022/04/26 04:50:53;;;;;;;20.92;19.65;;;;;;;3.13;100.00;101026.19;5049998;28;20045;-78
2022/04/26 04:53:26;;;;;;;23.33;21.95;;;;;;;3.20;100.00;101035.03;5042316;28;20046;-80
2022/04/26 04:56:01;;;;;;;24.02;22.63;;;;;;;3.28;100.00;101030.41;5036564;28;20052;-79
2022/04/26 04:58:34;;;;;;;27.83;26.23;;;;;;;3.29;100.00;101024.81;5053423;28;20646;-79
2022/04/26 05:01:08;;;;;;;29.65;27.98;;;;;;;3.47;100.00;101037.44;5045774;28;20056;-79
2022/04/26 05:03:41;;;;;;;33.03;31.17;;;;;;;3.73;100.00;101043.59;5048539;28;20098;-78
2022/04/26 05:06:15;;;;;;;45.15;42.70;;;;;;;4.98;100.00;101034.97;5043501;28;20056;-79
2022/04/26 05:08:48;;;;;;;52.28;49.47;;;;;;;6.85;100.00;101024.88;5037417;28;20045;-79
2022/04/26 05:11:22;;;;;;;36.00;34.00;;;;;;;7.96;100.00;101023.94;5047086;28;20040;-79
2022/04/26 05:13:56;;;;;;;17.35;16.27;;;;;;;8.42;100.00;101014.66;5043929;28;20045;-79
2022/04/26 05:16:29;;;;;;;8.75;8.15;;;;;;;9.29;100.00;101018.03;5045151;28;20401;-79
2022/04/26 05:19:02;;;;;;;4.97;4.57;;;;;;;9.46;100.00;101023.31;5043036;28;20393;-79
2022/04/26 05:21:35;;;;;;;2.95;2.75;;;;;;;9.09;100.00;101023.38;5044169;28;20045;-80
2022/04/26 05:27:00;;;;;;;2.13;1.75;;;;;;;6.75;100.00;101039.06;5043129;28;20041;-79
2022/04/26 05:29:34;;;;;;;1.98;1.70;;;;;;;6.59;100.00;101032.59;5046323;28;20401;-80
2022/04/26 05:32:08;;;;;;;2.15;1.83;;;;;;;6.28;100.00;101032.03;5041947;28;20046;-80
2022/04/26 05:34:41;;;;;;;2.55;1.77;;;;;;;6.20;100.00;101035.13;5045461;28;20071;-79
2022/04/26 05:37:14;;;;;;;1.73;1.52;;;;;;;6.06;100.00;101034.59;5045038;28;20057;-80
2022/04/26 05:39:48;;;;;;;1.98;1.70;;;;;;;5.83;100.00;101032.75;5047904;28;20052;-79
2022/04/26 05:42:22;;;;;;;2.17;1.75;;;;;;;5.85;100.00;101030.63;5042434;28;20053;-79
2022/04/26 05:44:56;;;;;;;2.17;1.75;;;;;;;5.72;100.00;101040.66;5047551;28;20052;-79
2022/04/26 05:47:29;;;;;;;2.30;1.85;;;;;;;5.68;100.00;101044.88;5048166;28;20051;-79
2022/04/26 05:50:03;;;;;;;2.25;1.90;;;;;;;5.65;100.00;101045.38;5062387;28;20037;-79
2022/04/26 05:52:36;;;;;;;2.40;1.92;;;;;;;5.88;100.00;101046.34;5051166;28;20068;-79
2022/04/26 05:55:10;;;;;;;2.40;1.98;;;;;;;5.90;100.00;101050.47;5050226;28;20049;-79
2022/04/26 05:57:45;;;;;;;2.10;1.90;;;;;;;5.79;100.00;101046.72;5051937;28;20049;-78
2022/04/26 06:00:19;;;;;;;2.13;1.92;;;;;;;5.76;100.00;101035.59;5046515;28;20060;-79
2022/04/26 06:02:52;;;;;;;3.33;2.22;;;;;;;5.96;100.00;101049.50;5050629;28;20048;-79
2022/04/26 06:05:26;;;;;;;2.22;2.03;;;;;;;5.94;100.00;101048.13;5051982;28;20071;-80
2022/04/26 06:07:59;;;;;;;2.13;1.92;;;;;;;6.11;100.00;101042.81;5045873;28;20045;-79
2022/04/26 06:10:32;;;;;;;2.20;2.00;;;;;;;6.29;100.00;101044.47;5046170;28;20048;-79
2022/04/26 06:13:02;;;;;;;2.33;2.13;;;;;;;6.34;100.00;101049.16;5063478;28;20493;-79
2022/04/26 06:15:35;;;;;;;2.17;1.98;;;;;;;6.37;100.00;101046.78;5044420;28;20032;-79
2022/04/26 06:18:08;;;;;;;2.20;2.00;;;;;;;6.38;100.00;101055.72;5049487;28;20052;-78
2022/04/26 06:20:41;;;;;;;3.22;2.28;;;;;;;6.56;100.00;101058.22;5049277;28;20070;-79
2022/04/26 06:23:14;;;;;;;2.47;2.28;;;;;;;6.70;100.00;101052.47;5043939;28;20048;-79
2022/04/26 06:25:47;;;;;;;2.45;2.25;;;;;;;6.74;100.00;101054.47;5045198;28;20057;-79
2022/04/26 06:28:22;;;;;;;2.30;2.10;;;;;;;6.79;100.00;101051.03;5042807;28;20056;-78
2022/04/26 06:30:55;;;;;;;2.30;2.10;;;;;;;6.85;100.00;101055.47;5045349;28;20041;-78
2022/04/26 06:33:29;;;;;;;2.22;2.03;;;;;;;6.95;100.00;101063.75;5052799;28;20060;-84
2022/04/26 06:36:02;;;;;;;2.28;2.08;;;;;;;7.12;100.00;101058.31;5049227;28;20045;-81
2022/04/26 06:38:31;;;;;;;2.55;2.35;;;;;;;7.09;100.00;101063.41;5041791;28;20055;-78
2022/04/26 06:41:04;;;;;;;2.60;2.40;;;;;;;7.26;100.00;101058.78;5043552;28;20041;-79
2022/04/26 06:43:34;;;;;;;2.50;2.30;;;;;;;7.32;100.00;101055.09;5044242;28;20060;-78
2022/04/26 06:46:07;;;;;;;2.42;2.22;;;;;;;7.54;100.00;101064.31;5036372;28;20048;-79
2022/04/26 06:48:41;;;;;;;2.53;2.33;;;;;;;7.60;100.00;101066.03;5043218;28;20042;-78
2022/04/26 06:51:14;;;;;;;2.50;2.30;;;;;;;7.61;100.00;101068.50;5045916;28;20049;-78
2022/04/26 06:53:47;;;;;;;2.35;2.13;;;;;;;7.83;100.00;101071.22;5037903;28;20053;-78
2022/04/26 06:56:16;;;;;;;2.40;2.20;;;;;;;7.91;100.00;101074.56;5064186;28;20069;-78
2022/04/26 06:58:50;;;;;;;2.50;2.30;;;;;;;7.77;100.00;101076.81;5045538;28;20056;-80
2022/04/26 07:01:23;;;;;;;2.80;2.20;;;;;;;8.00;100.00;101079.28;5045265;28;20044;-78
2022/04/26 07:03:56;;;;;;;2.33;2.13;;;;;;;8.01;100.00;101074.69;5022913;28;20060;-79
2022/04/26 07:06:30;;;;;;;2.25;2.05;;;;;;;8.16;100.00;101082.16;5031190;28;20053;-78
2022/04/26 07:09:03;;;;;;;2.42;2.22;;;;;;;8.29;100.00;101084.50;5039371;28;20049;-80
2022/04/26 07:11:36;;;;;;;2.58;2.30;;;;;;;8.38;100.00;101076.72;5024951;28;20064;-79
2022/04/26 07:14:11;;;;;;;3.80;2.35;;;;;;;8.62;100.00;101084.59;5022506;28;20045;-80
2022/04/26 07:16:48;;;;;;;2.40;2.03;;;;;;;8.67;100.00;101087.34;5031703;28;20136;-79
2022/04/26 07:19:16;;;;;;;2.35;2.10;;;;;;;8.59;100.00;101079.66;5032040;28;20053;-79
2022/04/26 07:21:50;;;;;;;1.83;1.65;;;;;;;8.66;100.00;101091.16;5027505;28;20045;-79
2022/04/26 07:24:23;;;;;;;1.92;1.80;;;;;;;8.86;100.00;101090.50;5022740;28;20049;-80
2022/04/26 07:26:56;;;;;;;1.73;1.63;;;;;;;9.06;100.00;101086.31;5038753;28;20056;-79
2022/04/26 07:29:30;;;;;;;2.08;1.80;;;;;;;9.36;100.00;101088.44;5023390;28;20050;-79
2022/04/26 07:31:59;;;;;;;2.63;1.90;;;;;;;9.55;100.00;101088.81;5023609;28;20814;-78
2022/04/26 07:34:31;;;;;;;1.83;1.73;;;;;;;9.55;100.00;101088.81;5029291;28;20045;-77
2022/04/26 07:37:04;;;;;;;1.60;1.50;;;;;;;9.52;100.00;101090.16;5031820;28;20060;-79
2022/04/26 07:39:38;;;;;;;4.20;1.77;;;;;;;9.33;100.00;101081.63;5036291;28;20493;-78
2022/04/26 07:42:11;;;;;;;1.65;1.55;;;;;;;9.50;100.00;101084.19;5025354;28;21568;-79
2022/04/26 07:44:45;;;;;;;1.63;1.50;;;;;;;9.78;100.00;101078.63;5028117;28;20061;-79
2022/04/26 07:47:16;;;;;;;1.85;1.50;;;;;;;9.98;100.00;101078.69;5031786;28;20061;-77
2022/04/26 07:49:49;;;;;;;1.63;1.40;;;;;;;9.94;100.00;101076.78;5026660;28;20049;-79
2022/04/26 07:52:18;;;;;;;1.70;1.40;;;;;;;10.00;100.00;101073.81;5029434;28;20057;-78
2022/04/26 07:54:52;;;;;;;1.60;1.40;;;;;;;10.28;100.00;101079.91;5019053;28;20053;-79
2022/04/26 07:57:20;;;;;;;3.08;1.73;;;;;;;10.12;100.00;101070.06;5023950;28;20060;-77
2022/04/26 07:59:51;;;;;;;1.80;1.50;;;;;;;10.67;100.00;101075.91;5028069;28;20060;-81
2022/04/26 08:02:22;;;;;;;2.72;1.60;;;;;;;10.66;100.00;101077.00;5024818;28;20045;-80
2022/04/26 08:05:01;;;;;;;1.88;1.60;;;;;;;10.82;100.00;101083.28;5011091;28;20052;-79
2022/04/26 08:07:29;;;;;;;2.13;1.60;;;;;;;10.77;100.00;101075.09;5024137;28;20063;-80
2022/04/26 08:10:03;;;;;;;1.95;1.40;;;;;;;10.67;100.00;101068.56;5021538;28;20767;-79
2022/04/26 08:12:36;;;;;;;1.90;1.35;;;;;;;11.00;100.00;101082.72;5024232;28;20044;-80
2022/04/26 08:15:13;;;;;;;1.67;1.38;;;;;;;11.12;100.00;101087.09;5023593;28;20075;-80
2022/04/26 08:17:50;;;;;;;2.10;1.38;;;;;;;10.82;100.00;101089.53;5024083;28;20059;-78
2022/04/26 08:20:24;;;;;;;2.17;1.50;;;;;;;10.76;100.00;101077.03;5023850;28;20053;-78
2022/04/26 08:22:57;;;;;;;1.50;1.20;;;;;;;10.68;100.00;101083.00;5026928;28;20060;-78
2022/04/26 08:28:16;;;;;;;1.83;1.27;;;;;;;10.81;100.00;101085.19;5038863;28;20060;-80
2022/04/26 08:30:46;;;;;;;2.47;1.50;;;;;;;11.16;100.00;101082.75;5022599;28;20057;-79
2022/04/26 08:33:19;;;;;;;2.00;1.30;;;;;;;11.18;100.00;101094.16;5024676;28;20067;-79
2022/04/26 08:35:53;;;;;;;1.48;1.30;;;;;;;11.19;100.00;101093.91;5025310;28;20050;-79
2022/04/26 08:38:26;;;;;;;2.55;1.30;;;;;;;10.95;100.00;101093.66;5022013;28;20057;-78
2022/04/26 08:40:59;;;;;;;1.83;1.20;;;;;;;10.92;100.00;101096.88;5039135;28;20528;-80
2022/04/26 08:43:33;;;;;;;1.80;1.30;;;;;;;11.04;100.00;101100.16;5026211;28;20056;-78
2022/04/26 08:46:08;;;;;;;1.85;1.30;;;;;;;11.12;100.00;101104.25;5040065;28;20064;-78
2022/04/26 08:51:29;;;;;;;1.42;1.10;;;;;;;11.30;100.00;101102.88;5020368;28;20049;-77
2022/04/26 08:53:57;;;;;;;1.73;1.10;;;;;;;11.41;100.00;101106.41;5029875;28;20060;-77
2022/04/26 08:56:31;;;;;;;2.25;1.35;;;;;;;11.31;100.00;101109.97;5022455;28;20048;-78
2022/04/26 08:59:04;;;;;;;2.15;1.10;;;;;;;11.37;100.00;101111.59;5021826;28;20048;-80
2022/04/26 09:01:33;;;;;;;1.70;1.27;;;;;;;11.26;99.60;101098.25;5017216;28;20087;-80
2022/04/26 09:04:06;;;;;;;1.30;1.13;;;;;;;11.46;100.00;101109.13;4996584;28;20057;-79
2022/04/26 09:06:43;;;;;;;1.98;1.20;;;;;;;11.40;96.83;101108.31;5026769;28;20048;-78
2022/04/26 09:09:18;;;;;;;2.80;1.20;;;;;;;11.53;96.22;101101.50;5023519;28;20052;-79
2022/04/26 09:12:00;;;;;;;1.95;1.10;;;;;;;11.58;87.66;101104.19;5017410;28;20061;-79
2022/04/26 09:14:35;;;;;;;2.20;1.30;;;;;;;11.33;93.55;101096.88;5016806;28;20049;-78
2022/04/26 09:17:16;;;;;;;1.70;1.20;;;;;;;11.58;92.61;101104.19;5018111;28;20048;-80
2022/04/26 09:19:52;;;;;;;2.95;1.30;;;;;;;11.42;89.72;101102.59;5026326;28;20048;-80
2022/04/26 09:22:22;;;;;;;1.58;1.15;;;;;;;11.45;89.52;101099.31;5021889;28;20064;-79
2022/04/26 09:24:55;;;;;;;2.20;1.17;;;;;;;11.74;91.95;101106.88;5035950;28;20926;-80
2022/04/26 09:27:29;;;;;;;1.67;1.00;;;;;;;11.97;87.86;101108.19;5039239;28;20497;-78
2022/04/26 09:30:08;;;;;;;1.50;1.20;;;;;;;12.03;85.59;101095.38;5019167;28;20466;-79
2022/04/26 09:32:47;;;;;;;1.75;1.05;;;;;;;12.06;81.97;101100.25;5020901;28;20048;-78
2022/04/26 09:35:21;;;;;;;1.42;1.08;;;;;;;11.90;76.04;101104.91;5022927;28;20053;-79
2022/04/26 09:37:54;;;;;;;2.05;1.15;;;;;;;12.07;75.35;101099.16;5022487;28;20056;-80
2022/04/26 09:40:28;;;;;;;2.03;1.23;;;;;;;11.85;78.00;101094.84;5026286;28;20059;-79
2022/04/26 09:43:01;;;;;;;1.20;1.10;;;;;;;11.97;77.26;101102.72;5016160;28;20053;-79
2022/04/26 09:45:29;;;;;;;1.90;1.20;;;;;;;12.02;76.36;101102.72;5022685;28;20048;-79
2022/04/26 09:48:04;;;;;;;1.92;1.17;;;;;;;12.03;69.66;101095.38;5023763;28;20052;-77
2022/04/26 09:50:37;;;;;;;2.58;1.20;;;;;;;12.06;74.47;101101.06;5021839;28;20099;-78
2022/04/26 09:53:10;;;;;;;2.72;1.10;;;;;;;11.83;72.40;101104.41;5014261;28;20061;-78
2022/04/26 09:55:39;;;;;;;1.10;1.00;;;;;;;12.19;80.07;101107.00;5021412;28;20056;-78
2022/04/26 09:58:17;;;;;;;1.40;1.00;;;;;;;12.23;71.89;101100.69;5018201;28;20073;-79
2022/04/26 10:00:54;;;;;;;1.52;1.13;;;;;;;12.23;73.30;101097.97;5020066;28;20059;-78
2022/04/26 10:03:32;;;;;;;1.00;0.90;;;;;;;12.36;69.20;101102.03;4999759;27;20091;-78
2022/04/26 10:06:07;;;;;;;2.45;1.10;;;;;;;12.39;65.49;101106.09;5018875;28;21808;-78
2022/04/26 10:08:40;;;;;;;1.95;1.13;;;;;;;12.33;68.27;101099.88;5024326;28;20044;-77
2022/04/26 10:11:15;;;;;;;1.17;1.08;;;;;;;12.23;63.31;101105.34;5023291;28;20061;-79
2022/04/26 10:13:49;;;;;;;1.33;1.00;;;;;;;12.40;69.25;101107.72;5027754;28;20047;-79
2022/04/26 10:16:24;;;;;;;1.63;1.10;;;;;;;12.52;68.25;101097.28;5020114;28;20060;-79
2022/04/26 10:19:07;;;;;;;1.45;1.02;;;;;;;12.67;71.94;101096.34;5021725;28;20056;-78
2022/04/26 10:21:48;;;;;;;1.55;1.10;;;;;;;12.68;65.47;101094.47;5019823;28;20052;-79
2022/04/26 10:24:22;;;;;;;1.40;1.10;;;;;;;12.81;70.96;101104.72;5020501;28;20057;-80
2022/04/26 10:27:20;;;;;;;1.98;1.10;;;;;;;12.63;68.43;101094.50;5021932;28;20056;-80
2022/04/26 10:29:48;;;;;;;1.75;1.10;;;;;;;12.59;68.97;101096.97;5021559;28;20056;-80
2022/04/26 10:32:34;;;;;;;1.60;0.90;;;;;;;12.35;63.37;101105.84;5019797;28;20071;-80
2022/04/26 10:35:31;;;;;;;2.17;1.20;;;;;;;12.27;64.92;101105.63;5025734;28;20886;-80
2022/04/26 10:38:12;;;;;;;1.23;1.10;;;;;;;12.20;63.97;101104.00;5028526;28;20049;-80
2022/04/26 10:41:09;;;;;;;1.25;1.05;;;;;;;12.43;61.79;101098.97;5019045;28;20052;-79
2022/04/26 10:43:37;;;;;;;1.30;1.10;;;;;;;12.74;63.33;101104.25;5028175;28;20053;-80
2022/04/26 10:46:12;;;;;;;0.77;0.77;;;;;;;12.53;58.62;101095.38;5025407;28;20068;-80
2022/04/26 10:48:45;;;;;;;1.10;1.00;;;;;;;12.86;58.73;101106.63;5027289;28;20041;-80
2022/04/26 10:51:36;;;;;;;1.05;0.90;;;;;;;12.66;54.99;101100.19;5025478;28;20053;-80
2022/04/26 10:54:09;;;;;;;1.25;1.00;;;;;;;13.11;62.42;101102.88;5028431;28;20053;-80
2022/04/26 10:56:42;;;;;;;1.20;0.90;;;;;;;13.19;54.27;101104.16;5025603;28;20049;-80
2022/04/26 10:59:14;;;;;;;1.20;0.93;;;;;;;13.17;53.62;101098.16;5024769;28;20056;-81
2022/04/26 11:01:47;;;;;;;1.20;1.10;;;;;;;13.28;56.29;101102.44;5022004;28;20053;-80
2022/04/26 11:04:17;;;;;;;1.40;1.00;;;;;;;13.25;53.75;101106.53;4993526;28;20783;-80
2022/04/26 11:06:52;;;;;;;1.10;1.00;;;;;;;13.35;58.00;101105.66;5029097;28;20056;-81
2022/04/26 11:09:25;;;;;;;1.52;1.10;;;;;;;13.47;52.66;101099.81;5027879;28;20057;-82
2022/04/26 11:12:03;;;;;;;2.47;1.00;;;;;;;13.69;60.64;101093.03;5026614;28;20079;-83
2022/04/26 11:14:31;;;;;;;1.10;1.00;;;;;;;13.79;55.64;101098.38;5021488;28;20053;-80
2022/04/26 11:17:05;;;;;;;1.67;1.13;;;;;;;13.69;53.53;101103.97;5028915;28;20060;-80
2022/04/26 11:19:40;;;;;;;1.20;0.90;;;;;;;13.60;53.07;101099.13;5024276;28;20697;-77
2022/04/26 11:22:12;;;;;;;1.15;0.90;;;;;;;13.53;52.73;101104.13;5026958;28;20049;-77
2022/04/26 11:28:03;;;;;;;1.30;1.00;;;;;;;12.96;52.32;101111.19;4984070;28;20065;-80
2022/04/26 11:30:38;;;;;;;1.67;1.10;;;;;;;12.90;52.61;101119.41;5027797;28;20083;-79
2022/04/26 11:33:14;;;;;;;1.10;0.90;;;;;;;13.25;50.74;101117.47;5031595;28;20053;-78
2022/04/26 11:35:52;;;;;;;2.10;1.20;;;;;;;13.60;51.36;101118.28;5029042;28;20241;-79
2022/04/26 11:38:27;;;;;;;1.15;0.93;;;;;;;13.64;52.01;101113.03;5027828;28;20307;-80
2022/04/26 11:40:58;;;;;;;1.90;1.20;;;;;;;13.87;51.10;101114.16;5026690;28;20045;-80
2022/04/26 11:43:28;;;;;;;1.10;1.00;;;;;;;14.07;53.23;101113.09;5023676;28;20052;-80
2022/04/26 11:46:02;;;;;;;1.73;1.20;;;;;;;13.93;50.70;101118.47;5029779;28;20056;-79
2022/04/26 11:48:36;;;;;;;0.80;0.80;;;;;;;14.07;51.30;101115.84;5026231;28;20048;-79
2022/04/26 11:51:09;;;;;;;1.60;0.90;;;;;;;13.90;49.55;101120.97;5027604;28;20049;-79
2022/04/26 11:53:39;;;;;;;1.38;1.10;;;;;;;14.00;50.82;101117.28;5024981;28;20088;-80
2022/04/26 11:56:15;;;;;;;1.10;0.93;;;;;;;14.28;48.99;101121.06;5024046;28;20064;-78
2022/04/26 11:58:49;;;;;;;1.10;1.00;;;;;;;13.95;46.72;101115.44;5019370;28;20045;-80
2022/04/26 12:01:18;;;;;;;2.25;1.10;;;;;;;14.19;52.37;101115.41;5026253;28;20406;-80
2022/04/26 12:03:54;;;;;;;1.10;1.00;;;;;;;14.33;47.49;101118.22;5000823;28;20049;-80
2022/04/26 12:06:31;;;;;;;1.30;1.00;;;;;;;14.67;51.62;101121.91;5021216;28;20057;-80
2022/04/26 12:09:03;;;;;;;1.40;1.10;;;;;;;15.06;49.71;101124.31;5019412;28;20067;-80
2022/04/26 12:11:38;;;;;;;1.33;1.17;;;;;;;14.89;46.39;101126.78;5024204;28;20064;-79
2022/04/26 12:14:13;;;;;;;1.08;0.90;;;;;;;14.52;49.91;101133.88;5018444;28;20053;-79
2022/04/26 12:16:49;;;;;;;1.48;1.20;;;;;;;13.68;49.17;101133.22;5024919;28;20586;-78
2022/04/26 12:19:18;;;;;;;1.33;1.15;;;;;;;13.54;46.81;101137.75;5045227;28;20519;-80
2022/04/26 12:21:47;;;;;;;1.30;1.10;;;;;;;13.71;50.05;101131.84;5024147;28;20060;-80
2022/04/26 12:24:25;;;;;;;1.42;1.00;;;;;;;13.64;47.58;101134.09;5022420;28;20064;-79
2022/04/26 12:27:00;;;;;;;1.27;0.90;;;;;;;13.72;50.50;101130.75;5022129;28;20060;-80
2022/04/26 12:29:43;;;;;;;1.05;0.95;;;;;;;13.69;47.18;101118.47;5021469;28;20049;-80
2022/04/26 12:32:19;;;;;;;1.25;1.00;;;;;;;13.90;51.60;101129.16;5018885;28;20056;-81
2022/04/26 12:34:54;;;;;;;1.73;1.10;;;;;;;13.77;49.08;101120.56;5019820;28;20072;-81
2022/04/26 12:37:29;;;;;;;1.50;1.30;;;;;;;13.53;47.02;101119.72;5025449;28;20049;-81
2022/04/26 12:40:09;;;;;;;1.15;1.00;;;;;;;13.63;45.57;101125.09;5019084;28;20059;-80
2022/04/26 12:42:44;;;;;;;1.52;1.00;;;;;;;13.71;48.80;101120.91;5020397;28;20056;-81
2022/04/26 12:45:16;;;;;;;1.90;1.00;;;;;;;13.71;47.47;101113.53;5029144;28;20045;-81
2022/04/26 12:50:57;;;;;;;2.03;0.90;;;;;;;13.89;45.92;101113.84;5022197;28;20064;-78
2022/04/26 12:53:32;;;;;;;1.65;1.00;;;;;;;14.46;48.37;101122.97;5023803;28;20704;-80
2022/04/26 12:56:09;;;;;;;0.80;0.70;;;;;;;14.44;46.17;101116.16;5020144;28;20049;-79
2022/04/26 12:58:44;;;;;;;;;;;;;;;14.10;45.14;101111.72;5017980;28;20059;-80
2022/04/26 13:01:17;;;;;;;1.48;0.95;;;;;;;13.90;44.51;101121.78;5020211;28;19929;-79
2022/04/26 13:03:50;;;;;;;0.80;0.80;;;;;;;13.80;45.63;101115.63;4996436;28;20083;-80
2022/04/26 13:06:25;;;;;;;1.35;1.10;;;;;;;13.84;44.10;101103.00;5021119;28;20056;-80
2022/04/26 13:08:58;;;;;;;1.33;1.10;;;;;;;14.06;45.56;101111.47;5021974;28;20053;-80
2022/04/26 13:11:33;;;;;;;1.20;1.00;;;;;;;14.43;45.48;101114.53;5015588;28;20535;-80
2022/04/26 13:14:06;;;;;;;1.95;1.00;;;;;;;13.95;46.53;101110.78;5016322;28;20087;-80
2022/04/26 13:16:39;;;;;;;0.80;0.80;;;;;;;13.88;44.86;101110.31;5014817;28;20053;-80
2022/04/26 13:19:12;;;;;;;2.58;1.15;;;;;;;13.84;46.48;101112.00;5023357;28;20059;-80
2022/04/26 13:21:45;;;;;;;1.02;0.93;;;;;;;13.94;43.63;101111.06;5027109;28;20053;-80
2022/04/26 13:24:27;;;;;;;1.77;0.95;;;;;;;14.42;43.73;101113.72;5016979;28;20140;-80
2022/04/26 13:27:02;;;;;;;1.10;1.00;;;;;;;14.49;43.20;101113.38;5019192;28;20057;-80
2022/04/26 13:29:35;;;;;;;1.30;1.00;;;;;;;14.60;44.43;101103.09;5026849;28;20048;-81
2022/04/26 13:32:09;;;;;;;1.10;0.93;;;;;;;14.85;46.49;101107.38;5019034;28;20060;-81
2022/04/26 13:34:42;;;;;;;1.33;0.90;;;;;;;14.56;42.65;101104.78;5023623;28;20053;-80
2022/04/26 13:37:11;;;;;;;1.75;0.95;;;;;;;14.66;42.82;101101.91;5015197;28;20057;-80
2022/04/26 13:39:45;;;;;;;1.35;1.00;;;;;;;14.55;43.63;101105.88;5023239;28;20052;-79
2022/04/26 13:42:20;;;;;;;1.20;0.90;;;;;;;14.98;45.57;101100.31;5020947;28;20052;-80
2022/04/26 13:44:53;;;;;;;1.00;0.90;;;;;;;15.08;43.33;101100.16;5020342;28;20055;-80
2022/04/26 13:47:27;;;;;;;1.00;0.90;;;;;;;14.95;40.83;101100.91;5017499;28;20068;-81
2022/04/26 13:50:00;;;;;;;1.25;0.90;;;;;;;15.01;41.35;101101.66;5022481;28;21431;-80
2022/04/26 13:52:33;;;;;;;1.10;1.00;;;;;;;14.81;42.97;101097.31;5019020;28;20045;-80
2022/04/26 13:55:01;;;;;;;1.30;0.90;;;;;;;14.48;43.54;101091.75;5024846;28;20083;-81
2022/04/26 13:57:38;;;;;;;1.08;0.90;;;;;;;14.55;42.50;101098.47;5019488;28;20508;-78
2022/04/26 14:00:13;;;;;;;1.40;1.00;;;;;;;14.62;41.56;101090.75;5026733;28;20053;-80
2022/04/26 14:02:48;;;;;;;1.00;0.80;;;;;;;14.60;41.51;101095.66;5021448;28;20552;-81
2022/04/26 14:05:23;;;;;;;1.58;0.90;;;;;;;14.40;41.47;101098.69;4997518;27;20065;-80
2022/04/26 14:07:56;;;;;;;2.47;1.02;;;;;;;14.54;43.69;101096.03;5019105;28;20053;-80
2022/04/26 14:10:24;;;;;;;1.50;0.80;;;;;;;15.02;44.59;101101.34;5019953;28;20057;-80
2022/04/26 14:12:55;;;;;;;1.00;0.90;;;;;;;14.93;41.42;101095.75;5021300;28;20053;-79
2022/04/26 14:24:01;;;;;;;;;;;;;;;14.70;43.56;101092.00;5030560;28;20587;-79
2022/04/26 14:26:29;;;;;;;;;;;;;;;14.69;43.14;101097.78;5028892;28;19936;-80
2022/04/26 14:29:03;;;;;;;;;;;;;;;14.32;41.34;101100.19;5020469;28;19941;-78
2022/04/26 14:31:37;;;;;;;;;;;;;;;14.40;42.78;101093.22;5025788;28;20755;-80
2022/04/26 14:34:10;;;;;;;;;;;;;;;14.66;41.81;101093.69;5021836;28;19936;-79
2022/04/26 14:36:38;;;;;;;;;;;;;;;14.50;44.25;101095.00;5020145;28;19936;-77
2022/04/26 14:39:12;;;;;;;;;;;;;;;14.66;43.35;101103.84;5024243;28;19939;-77
2022/04/26 14:41:45;;;;;;;;;;;;;;;14.86;45.20;101108.19;5021487;28;21333;-78
2022/04/26 14:44:14;;;;;;;;;;;;;;;14.48;42.26;101094.50;5021036;28;19935;-75
2022/04/26 14:46:47;;;;;;;;;;;;;;;14.52;44.07;101093.59;5020339;28;19929;-79
2022/04/26 14:49:20;;;;;;;;;;;;;;;14.72;41.88;101097.16;5025563;28;19950;-79
2022/04/26 14:51:53;;;;;;;;;;;;;;;14.53;43.41;101091.66;5022144;28;19935;-79
2022/04/26 14:54:26;;;;;;;;;;;;;;;14.60;42.36;101089.38;5026883;28;19928;-79
2022/04/26 14:56:59;;;;;;;;;;;;;;;14.59;42.64;101090.50;5058300;28;19929;-79
2022/04/26 14:59:36;;;;;;;;;;;;;;;14.73;43.21;101088.66;5026082;28;19936;-79
2022/04/26 15:02:09;;;;;;;;;;;;;;;14.91;41.22;101086.19;5025939;28;19929;-80
2022/04/26 15:04:42;;;;;;;;;;;;;;;14.72;43.19;101087.03;5002827;27;19932;-79
2022/04/26 15:07:15;;;;;;;;;;;;;;;14.75;43.04;101091.91;5026384;28;21453;-79
2022/04/26 15:09:52;;;;;;;;;;;;;;;14.42;40.38;101088.28;5022373;28;19929;-79
2022/04/26 15:18:03;;;;;;;;;;;;;;;14.24;41.87;101092.63;5024798;28;19925;-79
2022/04/26 15:20:36;;;;;;;;;;;;;;;14.37;41.83;101094.63;5025833;28;19928;-77
2022/04/26 15:23:09;;;;;;;;;;;;;;;14.41;42.19;101094.88;5024733;28;20548;-77
2022/04/26 15:25:48;;;;;;;;;;;;;;;14.54;42.01;101088.66;5024516;28;19932;-77
2022/04/26 15:28:25;;;;;;;;;;;;;;;14.56;42.16;101093.84;5027676;28;19924;-77
2022/04/26 15:30:55;;;;;;;;;;;;;;;14.48;44.19;101095.31;5028104;28;19929;-78
2022/04/26 15:33:28;;;;;;;;;;;;;;;14.34;44.89;101102.63;5036516;28;19936;-78
2022/04/26 15:35:57;;;;;;;;;;;;;;;13.93;45.46;101106.69;5018953;28;19928;-79
2022/04/26 15:38:27;;;;;;;;;;;;;;;13.69;46.27;101109.44;5031030;28;19932;-77
2022/04/26 15:41:05;;;;;;;;;;;;;;;13.49;46.10;101116.75;5017808;28;19928;-77
2022/04/26 15:43:33;;;;;;;;;;;;;;;13.61;45.02;101113.63;5016043;28;19935;-78
2022/04/26 15:46:03;;;;;;;;;;;;;;;13.70;48.50;101106.41;5019442;28;20462;-79
2022/04/26 15:48:38;;;;;;;;;;;;;;;13.81;47.83;101106.28;5023543;28;19929;-82
2022/04/26 15:51:07;;;;;;;;;;;;;;;14.02;47.71;101110.41;5015859;28;19943;-79
2022/04/26 15:53:40;;;;;;;;;;;;;;;13.99;47.72;101113.75;5022461;28;19932;-79
2022/04/26 15:56:13;;;;;;;;;;;;;;;13.37;47.53;101108.94;5021008;28;19929;-76
2022/04/26 15:58:46;;;;;;;;;;;;;;;13.27;49.08;101117.19;5021263;28;19936;-80
2022/04/26 16:01:16;;;;;;;;;;;;;;;13.18;48.50;101118.94;5037625;28;19935;-80
2022/04/26 16:03:49;;;;;;;;;;;;;;;13.01;50.07;101124.78;5004660;27;19933;-81
2022/04/26 16:06:22;;;;;;;;;;;;;;;13.11;53.67;101127.44;5015223;28;19936;-80